Time;durP1;ratioP1;P1;durP2;ratioP2;P2;SDS_P1;SDS_P2;PMS_P1;PMS_P2;Temp;Humidity;BMP_temperature;BMP_pressure;BME280_temperature;BME280_humidity;BME280_pressure;Samples;Min_cycle;Max_cycle;Signal;HPM_P1;HPM_P2
2023/12/02 00:01:20;;;;;;;3.83;3.13;;;;;;;-0.50;100.00;96163.94;6231692;28;20665;-46
2023/12/02 00:04:22;;;;;;;2.93;2.57;;;;;;;-0.48;100.00;96161.94;6260490;28;20215;-46
2023/12/02 00:07:24;;;;;;;3.13;2.83;;;;;;;-0.48;100.00;96152.28;6234193;28;20562;-49
2023/12/02 00:10:26;;;;;;;3.90;3.20;;;;;;;-0.49;100.00;96132.38;6230828;28;20232;-49
2023/12/02 00:13:28;;;;;;;4.73;3.60;;;;;;;-0.52;100.00;96112.66;6235343;28;20200;-46
2023/12/02 00:16:30;;;;;;;3.33;3.03;;;;;;;-0.53;100.00;96115.50;6232745;28;20680;-48
2023/12/02 00:19:32;;;;;;;2.63;2.43;;;;;;;-0.53;100.00;96118.09;6231890;28;20200;-47
2023/12/02 00:22:34;;;;;;;4.03;3.17;;;;;;;-0.53;100.00;96123.34;6229657;28;20196;-46
2023/12/02 00:25:36;;;;;;;3.10;2.80;;;;;;;-0.55;100.00;96125.34;6235169;28;20662;-46
2023/12/02 00:28:38;;;;;;;3.63;2.87;;;;;;;-0.57;100.00;96114.31;6226520;28;20193;-48
2023/12/02 00:31:40;;;;;;;5.10;3.10;;;;;;;-0.58;100.00;96123.16;6223029;28;20327;-47
2023/12/02 00:34:42;;;;;;;3.23;2.93;;;;;;;-0.58;100.00;96091.78;6230724;28;20204;-45
2023/12/02 00:37:45;;;;;;;3.50;3.20;;;;;;;-0.61;100.00;96118.34;6227471;28;20311;-47
2023/12/02 00:40:47;;;;;;;4.63;3.43;;;;;;;-0.59;100.00;96087.53;6229607;28;20188;-46
2023/12/02 00:43:49;;;;;;;3.50;2.87;;;;;;;-0.57;100.00;96109.88;6229067;28;20720;-48
2023/12/02 00:46:51;;;;;;;3.57;2.83;;;;;;;-0.57;100.00;96109.06;6239860;28;20196;-47
2023/12/02 00:49:53;;;;;;;4.13;3.47;;;;;;;-0.58;100.00;96117.94;6228287;28;20254;-48
2023/12/02 00:52:56;;;;;;;3.37;3.07;;;;;;;-0.57;100.00;96117.72;6224432;28;20795;-50
2023/12/02 00:55:58;;;;;;;4.20;3.70;;;;;;;-0.57;100.00;96111.69;6232517;28;20657;-47
2023/12/02 00:59:00;;;;;;;3.50;3.20;;;;;;;-0.57;100.00;96115.09;6232832;28;20419;-48
2023/12/02 01:02:03;;;;;;;5.00;3.80;;;;;;;-0.58;100.00;96117.94;6226707;28;20323;-46
2023/12/02 01:05:05;;;;;;;5.47;4.50;;;;;;;-0.58;100.00;96104.84;6237111;28;20684;-48
2023/12/02 01:08:07;;;;;;;7.27;5.23;;;;;;;-0.60;100.00;96119.94;6241236;28;20302;-46
2023/12/02 01:11:09;;;;;;;6.60;5.37;;;;;;;-0.62;100.00;96104.47;6240642;28;21134;-46
2023/12/02 01:14:12;;;;;;;6.73;5.40;;;;;;;-0.83;100.00;96068.19;6230699;28;20212;-46
2023/12/02 01:17:14;;;;;;;7.47;5.53;;;;;;;-0.71;100.00;96082.19;6230723;28;20778;-47
2023/12/02 01:20:16;;;;;;;6.77;5.50;;;;;;;-0.59;100.00;96090.97;6230556;28;20770;-46
2023/12/02 01:23:18;;;;;;;6.13;5.20;;;;;;;-0.61;100.00;96069.47;6229355;28;20195;-46
2023/12/02 01:26:20;;;;;;;6.03;4.87;;;;;;;-0.59;100.00;96077.91;6234759;28;20197;-48
2023/12/02 01:29:22;;;;;;;6.90;5.70;;;;;;;-0.59;100.00;96084.94;6232751;28;20200;-45
2023/12/02 01:32:24;;;;;;;7.87;5.80;;;;;;;-0.57;100.00;96094.19;6234281;28;20711;-48
2023/12/02 01:35:26;;;;;;;7.07;5.27;;;;;;;-0.61;100.00;96084.34;6234382;28;20561;-45
2023/12/02 01:38:28;;;;;;;8.47;6.53;;;;;;;-0.54;100.00;96085.91;6236247;28;21106;-48
2023/12/02 01:41:31;;;;;;;8.53;5.87;;;;;;;-0.53;100.00;96090.13;6225545;28;20212;-46
2023/12/02 01:44:33;;;;;;;7.40;5.90;;;;;;;-0.52;100.00;96098.78;6236274;28;20577;-47
2023/12/02 01:47:35;;;;;;;9.47;6.40;;;;;;;-0.55;100.00;96101.81;6235498;28;20199;-46
2023/12/02 01:50:38;;;;;;;9.67;6.90;;;;;;;-0.59;100.00;96104.06;6230025;28;20684;-46
2023/12/02 01:53:40;;;;;;;9.47;7.27;;;;;;;-0.59;100.00;96117.13;6225007;28;20204;-48
2023/12/02 01:56:42;;;;;;;8.63;6.43;;;;;;;-0.59;100.00;96111.06;6230975;28;20208;-46
2023/12/02 02:00:00;;;;;;;10.03;7.83;;;;;;;-0.62;100.00;96108.91;6225139;28;20368;-48
2023/12/02 02:03:12;;;;;;;12.53;8.13;;;;;;;-0.80;100.00;96072.97;6230353;28;20258;-46
2023/12/02 02:06:14;;;;;;;11.30;8.43;;;;;;;-0.64;100.00;96082.97;6227932;28;20205;-48
2023/12/02 02:09:16;;;;;;;12.93;9.07;;;;;;;-0.65;100.00;96078.72;6229139;28;20196;-46
2023/12/02 02:12:19;;;;;;;13.70;10.03;;;;;;;-0.65;100.00;96070.09;6231631;28;20574;-45
2023/12/02 02:15:21;;;;;;;11.87;8.90;;;;;;;-0.70;100.00;96055.03;6237796;28;20205;-47
2023/12/02 02:18:24;;;;;;;14.63;9.37;;;;;;;-0.69;100.00;96071.50;6229234;28;20208;-46
2023/12/02 02:21:26;;;;;;;15.13;9.53;;;;;;;-0.69;100.00;96069.72;6229547;28;20216;-46
2023/12/02 02:24:28;;;;;;;12.20;9.30;;;;;;;-0.68;100.00;96062.69;6229310;28;20208;-49
2023/12/02 02:27:31;;;;;;;12.13;9.00;;;;;;;-0.68;100.00;96070.53;6228940;28;20330;-48
2023/12/02 02:30:33;;;;;;;12.53;9.03;;;;;;;-0.69;100.00;96061.06;6231210;28;20187;-47
2023/12/02 02:33:36;;;;;;;14.10;9.17;;;;;;;-0.68;100.00;96065.28;6220652;28;20611;-47
2023/12/02 02:36:38;;;;;;;14.47;10.17;;;;;;;-0.84;100.00;96025.56;6225865;28;20214;-47
2023/12/02 02:39:40;;;;;;;12.43;9.33;;;;;;;-0.69;100.00;96050.59;6227395;28;20286;-48
2023/12/02 02:42:42;;;;;;;13.97;9.47;;;;;;;-0.70;100.00;96049.78;6228284;28;20319;-46
2023/12/02 02:45:44;;;;;;;13.87;9.67;;;;;;;-0.68;100.00;96065.28;6230031;28;20210;-46
2023/12/02 02:48:47;;;;;;;14.83;10.50;;;;;;;-0.68;100.00;96073.13;6230207;28;20199;-50
2023/12/02 02:51:50;;;;;;;13.70;9.70;;;;;;;-0.67;100.00;96072.13;6230005;28;20198;-46
2023/12/02 02:54:52;;;;;;;13.97;10.23;;;;;;;-0.70;100.00;96062.06;6227296;28;20193;-48
2023/12/02 02:57:54;;;;;;;14.87;10.67;;;;;;;-0.71;100.00;96052.63;6227223;28;20211;-46
2023/12/02 03:00:57;;;;;;;15.43;11.60;;;;;;;-0.75;100.00;96059.28;6229214;28;20794;-48
2023/12/02 03:03:59;;;;;;;16.23;11.97;;;;;;;-0.77;100.00;96067.34;6225127;28;20196;-50
2023/12/02 03:07:01;;;;;;;17.03;11.53;;;;;;;-0.75;100.00;96065.31;6219585;28;20207;-47
2023/12/02 03:10:04;;;;;;;17.20;11.90;;;;;;;-0.72;100.00;96059.69;6223917;28;20200;-47
2023/12/02 03:13:06;;;;;;;15.43;11.13;;;;;;;-0.79;100.00;96051.06;6227061;28;20199;-49
2023/12/02 03:16:09;;;;;;;16.50;11.63;;;;;;;-0.76;100.00;96058.50;6231687;28;20563;-47
2023/12/02 03:19:11;;;;;;;15.80;11.17;;;;;;;-0.75;100.00;96046.22;6223314;28;20583;-47
2023/12/02 03:22:14;;;;;;;15.60;10.97;;;;;;;-0.74;100.00;96045.19;6228234;28;20992;-48
2023/12/02 03:25:17;;;;;;;18.47;12.27;;;;;;;-0.74;100.00;96043.38;6228324;28;20199;-48
2023/12/02 03:28:21;;;;;;;18.00;11.87;;;;;;;-0.74;100.00;96038.16;6233258;28;20207;-46
2023/12/02 03:31:23;;;;;;;15.97;11.30;;;;;;;-0.72;100.00;96036.16;6231111;28;20564;-46
2023/12/02 03:34:27;;;;;;;16.37;12.20;;;;;;;-0.90;100.00;96008.09;6232048;28;20660;-48
2023/12/02 03:37:29;;;;;;;16.70;12.33;;;;;;;-0.79;100.00;96030.13;6231383;28;20593;-47
2023/12/02 03:40:31;;;;;;;16.53;12.67;;;;;;;-0.72;100.00;96051.84;6235504;28;20204;-49
2023/12/02 03:43:33;;;;;;;19.03;13.80;;;;;;;-0.74;100.00;96029.50;6235080;28;20269;-47
2023/12/02 03:46:49;;;;;;;18.93;13.10;;;;;;;-0.83;100.00;96027.16;6232193;28;20196;-48
2023/12/02 03:49:52;;;;;;;18.77;13.10;;;;;;;-0.79;100.00;96049.28;6227944;28;20199;-46
2023/12/02 03:52:54;;;;;;;17.67;12.40;;;;;;;-0.75;100.00;96051.44;6233919;28;20204;-47
2023/12/02 03:55:56;;;;;;;18.70;12.43;;;;;;;-0.78;100.00;96047.44;6229570;28;20191;-48
2023/12/02 03:58:58;;;;;;;16.73;12.27;;;;;;;-0.82;100.00;96047.06;6225393;28;20212;-47
2023/12/02 04:02:01;;;;;;;20.13;12.93;;;;;;;-0.87;100.00;96065.19;6227243;28;20227;-48
2023/12/02 04:05:06;;;;;;;17.57;12.70;;;;;;;-0.85;100.00;96071.00;6223138;28;20196;-48
2023/12/02 04:08:09;;;;;;;16.60;12.47;;;;;;;-0.87;100.00;96067.00;6229778;28;20180;-48
2023/12/02 04:11:11;;;;;;;20.20;13.63;;;;;;;-0.89;100.00;96051.50;6229918;28;20196;-46
2023/12/02 04:14:14;;;;;;;19.47;13.43;;;;;;;-0.83;100.00;96071.59;6229882;28;20184;-47
2023/12/02 04:17:17;;;;;;;16.97;12.47;;;;;;;-0.87;100.00;96069.63;6227147;28;20567;-46
2023/12/02 04:20:21;;;;;;;20.57;13.80;;;;;;;-0.89;100.00;96058.56;6218629;28;20255;-47
2023/12/02 04:23:23;;;;;;;20.13;13.47;;;;;;;-0.89;100.00;96075.03;6227957;28;20192;-49
2023/12/02 04:26:25;;;;;;;19.57;13.60;;;;;;;-0.90;100.00;96057.75;6229997;28;20197;-49
2023/12/02 04:29:27;;;;;;;20.90;13.50;;;;;;;-0.91;100.00;96058.78;6220424;28;20196;-46
2023/12/02 04:32:29;;;;;;;19.43;12.17;;;;;;;-0.91;100.00;96064.00;6220580;28;20229;-47
2023/12/02 04:35:34;;;;;;;15.97;11.87;;;;;;;-0.90;100.00;96070.81;6222351;28;20763;-47
2023/12/02 04:38:37;;;;;;;18.73;12.33;;;;;;;-0.90;100.00;96041.28;6232749;28;20735;-47
2023/12/02 04:41:39;;;;;;;15.97;11.57;;;;;;;-0.92;100.00;96046.72;6229165;28;20281;-47
2023/12/02 04:44:41;;;;;;;16.97;12.43;;;;;;;-0.93;100.00;96039.09;6239771;28;20199;-47
2023/12/02 04:47:43;;;;;;;17.47;12.40;;;;;;;-0.97;100.00;96041.31;6235871;28;20644;-47
2023/12/02 04:50:45;;;;;;;17.43;11.27;;;;;;;-0.97;100.00;96022.22;6231287;28;20653;-48
2023/12/02 04:53:48;;;;;;;13.93;11.13;;;;;;;-0.95;100.00;96025.41;6232544;28;20196;-47
2023/12/02 04:56:50;;;;;;;15.63;11.20;;;;;;;-0.95;100.00;96031.44;6231019;28;20199;-49
2023/12/02 04:59:52;;;;;;;16.97;11.33;;;;;;;-0.97;100.00;96035.28;6231078;28;20693;-46
2023/12/02 05:02:54;;;;;;;17.67;12.10;;;;;;;-0.94;100.00;96055.78;6228321;28;20192;-48
2023/12/02 05:05:57;;;;;;;17.00;11.30;;;;;;;-0.98;100.00;96062.44;6230749;28;20204;-47
2023/12/02 05:09:00;;;;;;;15.53;10.73;;;;;;;-0.96;100.00;96063.81;6231232;28;20188;-47
2023/12/02 05:12:02;;;;;;;14.90;11.50;;;;;;;-0.98;100.00;96054.59;6233096;28;20196;-47
2023/12/02 05:15:04;;;;;;;15.77;10.73;;;;;;;-0.97;100.00;96050.97;6226618;28;20236;-47
2023/12/02 05:18:08;;;;;;;14.83;10.30;;;;;;;-0.96;100.00;96056.00;6226875;28;20286;-48
2023/12/02 05:21:10;;;;;;;14.60;9.40;;;;;;;-0.95;100.00;96064.63;6228878;28;20977;-50
2023/12/02 05:24:13;;;;;;;14.03;10.07;;;;;;;-0.97;100.00;96083.13;6234639;28;20199;-46
2023/12/02 05:27:15;;;;;;;16.37;10.43;;;;;;;-0.93;100.00;96075.69;6233350;28;20177;-47
2023/12/02 05:30:18;;;;;;;12.67;9.63;;;;;;;-1.11;100.00;96053.66;6232907;28;20699;-47
2023/12/02 05:33:23;;;;;;;14.03;10.40;;;;;;;-0.96;100.00;96063.03;6236327;28;20243;-47
2023/12/02 05:36:25;;;;;;;14.70;10.57;;;;;;;-1.14;100.00;96029.72;6236534;28;20290;-50
2023/12/02 05:39:27;;;;;;;13.57;10.03;;;;;;;-0.96;100.00;96069.06;6237796;28;20255;-48
2023/12/02 05:42:30;;;;;;;14.17;11.07;;;;;;;-0.95;100.00;96073.25;6237589;28;20197;-49
2023/12/02 05:45:32;;;;;;;13.63;9.97;;;;;;;-0.92;100.00;96090.34;6241244;28;20215;-49
2023/12/02 05:48:34;;;;;;;16.07;12.00;;;;;;;-0.94;100.00;96090.53;6237823;28;20672;-47
2023/12/02 05:51:39;;;;;;;18.07;12.90;;;;;;;-1.16;100.00;96063.91;6236367;28;20672;-47
2023/12/02 05:54:41;;;;;;;15.50;11.93;;;;;;;-0.95;100.00;96088.16;6226784;28;20276;-50
2023/12/02 05:57:46;;;;;;;18.30;12.80;;;;;;;-0.95;100.00;96093.38;6222696;28;20211;-49
2023/12/02 06:00:48;;;;;;;20.17;13.40;;;;;;;-0.99;100.00;96098.22;6227695;28;20224;-49
2023/12/02 06:03:50;;;;;;;19.27;13.37;;;;;;;-1.07;100.00;96078.34;6230117;28;20200;-48
2023/12/02 06:06:53;;;;;;;19.23;13.00;;;;;;;-0.99;100.00;96085.13;6231010;28;20596;-48
2023/12/02 06:09:55;;;;;;;18.03;12.67;;;;;;;-1.01;100.00;96086.38;6232497;28;20199;-48
2023/12/02 06:12:57;;;;;;;17.33;11.83;;;;;;;-1.01;100.00;96102.06;6235747;28;20192;-48
2023/12/02 06:15:59;;;;;;;17.80;12.57;;;;;;;-1.09;100.00;96082.16;6235919;28;20200;-50
2023/12/02 06:19:01;;;;;;;17.00;12.93;;;;;;;-1.02;100.00;96095.22;6234536;28;20762;-48
2023/12/02 06:22:03;;;;;;;18.17;12.53;;;;;;;-1.05;100.00;96106.88;6222769;28;20196;-48
2023/12/02 06:25:06;;;;;;;18.47;12.43;;;;;;;-1.18;100.00;96052.06;6221430;28;20201;-48
2023/12/02 06:28:08;;;;;;;19.03;13.07;;;;;;;-0.88;100.00;96102.00;6224109;28;20676;-49
2023/12/02 06:31:13;;;;;;;18.80;12.77;;;;;;;-0.97;100.00;96117.13;6230922;28;20224;-47
2023/12/02 06:34:16;;;;;;;20.20;13.40;;;;;;;-1.00;100.00;96124.56;6225650;28;20509;-50
2023/12/02 06:37:18;;;;;;;19.93;13.50;;;;;;;-1.01;100.00;96131.59;6224422;28;20227;-47
2023/12/02 06:40:20;;;;;;;17.47;13.00;;;;;;;-1.03;100.00;96110.09;6227579;28;20208;-48
2023/12/02 06:43:22;;;;;;;19.57;13.87;;;;;;;-1.03;100.00;96097.03;6227998;28;20196;-47
2023/12/02 06:46:24;;;;;;;19.53;14.63;;;;;;;-1.03;100.00;96078.75;6232127;28;20203;-48
2023/12/02 06:49:26;;;;;;;19.83;14.70;;;;;;;-1.04;100.00;96087.56;6222464;28;20277;-50
2023/12/02 06:52:29;;;;;;;19.03;13.67;;;;;;;-1.03;100.00;96117.94;6233502;28;20282;-49
2023/12/02 06:55:31;;;;;;;18.97;13.77;;;;;;;-1.00;100.00;96120.13;6226935;28;20257;-47
2023/12/02 06:58:36;;;;;;;17.63;13.77;;;;;;;-0.98;100.00;96115.50;6227381;28;20307;-48
2023/12/02 07:01:40;;;;;;;20.33;14.30;;;;;;;-1.01;100.00;96118.53;6229897;28;20207;-49
2023/12/02 07:04:43;;;;;;;20.77;14.77;;;;;;;-1.01;100.00;96128.19;6223324;28;20204;-50
2023/12/02 07:07:45;;;;;;;17.30;12.77;;;;;;;-1.03;100.00;96131.00;6226315;28;20184;-47
2023/12/02 07:10:47;;;;;;;17.97;12.73;;;;;;;-1.04;100.00;96130.19;6221041;28;20667;-48
2023/12/02 07:13:49;;;;;;;22.67;13.27;;;;;;;-1.02;100.00;96135.22;6227785;28;20575;-47
2023/12/02 07:16:51;;;;;;;17.80;12.60;;;;;;;-0.94;100.00;96134.19;6222151;28;20204;-49
2023/12/02 07:19:53;;;;;;;17.00;12.47;;;;;;;-0.93;100.00;96123.53;6222975;28;20578;-47
2023/12/02 07:22:55;;;;;;;15.07;12.23;;;;;;;-0.97;100.00;96104.03;6222021;28;20211;-48
2023/12/02 07:25:58;;;;;;;17.27;12.30;;;;;;;-0.98;100.00;96102.44;6232392;28;20779;-50
2023/12/02 07:29:00;;;;;;;16.17;11.23;;;;;;;-0.96;100.00;96108.25;6226736;28;20189;-48
2023/12/02 07:32:03;;;;;;;16.50;11.07;;;;;;;-0.91;100.00;96123.31;6220543;28;20224;-48
2023/12/02 07:35:06;;;;;;;14.83;10.67;;;;;;;-0.89;100.00;96127.31;6234560;28;20199;-48
2023/12/02 07:38:08;;;;;;;14.93;11.47;;;;;;;-0.89;100.00;96105.59;6232775;28;20212;-48
2023/12/02 07:41:11;;;;;;;14.67;11.10;;;;;;;-0.87;100.00;96127.13;6233880;28;20902;-50
2023/12/02 07:44:13;;;;;;;13.53;9.97;;;;;;;-0.95;100.00;96116.91;6236533;28;20215;-47
2023/12/02 07:47:15;;;;;;;12.97;10.60;;;;;;;-0.80;100.00;96136.53;6238365;28;20196;-47
2023/12/02 07:50:17;;;;;;;11.17;9.27;;;;;;;-0.76;100.00;96157.84;6220238;28;20654;-47
2023/12/02 07:53:19;;;;;;;14.17;10.53;;;;;;;-0.75;100.00;96164.66;6227336;28;20289;-48
2023/12/02 07:56:21;;;;;;;14.70;10.57;;;;;;;-0.75;100.00;96156.03;6229059;28;20204;-48
2023/12/02 07:59:23;;;;;;;17.73;11.40;;;;;;;-0.79;100.00;96146.00;6228290;28;20222;-50
2023/12/02 08:02:26;;;;;;;15.63;11.00;;;;;;;-0.71;100.00;96123.22;6226871;28;20200;-50
2023/12/02 08:05:28;;;;;;;13.73;10.17;;;;;;;-0.76;100.00;96123.84;6225181;28;20211;-49
2023/12/02 08:08:33;;;;;;;15.43;10.47;;;;;;;-0.75;100.00;96129.88;6228335;28;20216;-49
2023/12/02 08:11:36;;;;;;;13.53;9.63;;;;;;;-0.76;100.00;96141.34;6234820;28;20196;-50
2023/12/02 08:14:38;;;;;;;16.43;11.43;;;;;;;-0.77;100.00;96160.66;6237376;28;20187;-47
2023/12/02 08:17:40;;;;;;;13.83;10.57;;;;;;;-0.75;100.00;96159.44;6239099;28;20192;-48
2023/12/02 08:20:42;;;;;;;16.70;11.00;;;;;;;-0.75;100.00;96150.78;6232096;28;20657;-45
2023/12/02 08:23:44;;;;;;;13.30;10.90;;;;;;;-0.80;100.00;96167.91;6230766;28;20814;-46
2023/12/02 08:26:49;;;;;;;16.97;11.23;;;;;;;-0.79;100.00;96174.75;6231732;28;20200;-46
2023/12/02 08:29:51;;;;;;;15.77;11.23;;;;;;;-0.86;100.00;96179.19;6223753;28;20193;-46
2023/12/02 08:32:53;;;;;;;17.67;11.73;;;;;;;-0.91;100.00;96165.13;6227244;28;20807;-47
2023/12/02 08:35:55;;;;;;;14.33;10.33;;;;;;;-0.90;100.00;96141.41;6230580;28;20199;-48
2023/12/02 08:38:57;;;;;;;14.80;10.30;;;;;;;-0.85;100.00;96157.25;6222590;28;20209;-49
2023/12/02 08:42:00;;;;;;;16.57;11.97;;;;;;;-0.81;100.00;96155.84;6230460;28;20197;-50
2023/12/02 08:45:02;;;;;;;15.70;11.53;;;;;;;-0.81;100.00;96161.06;6230611;28;20731;-51
2023/12/02 08:48:05;;;;;;;14.80;10.57;;;;;;;-0.79;100.00;96166.09;6231597;28;20188;-49
2023/12/02 08:51:07;;;;;;;13.27;10.07;;;;;;;-0.86;100.00;96173.97;6231323;28;20197;-49
2023/12/02 08:54:09;;;;;;;14.50;11.00;;;;;;;-0.63;100.00;96175.28;6231622;28;20200;-49
2023/12/02 08:57:11;;;;;;;16.63;11.07;;;;;;;-0.72;100.00;96184.38;6234657;28;20199;-50
2023/12/02 09:00:14;;;;;;;17.33;10.67;;;;;;;-1.04;100.00;96145.88;6230372;28;20552;-47
2023/12/02 09:03:16;;;;;;;16.43;11.67;;;;;;;-0.82;100.00;96169.94;6233991;28;20657;-46
2023/12/02 09:06:18;;;;;;;15.33;10.77;;;;;;;-0.83;100.00;96160.50;6223476;28;20205;-48
2023/12/02 09:09:20;;;;;;;14.53;10.17;;;;;;;-0.82;100.00;96150.84;6230326;28;20188;-48
2023/12/02 09:12:23;;;;;;;15.30;10.83;;;;;;;-0.95;100.00;96128.16;6230949;28;20206;-48
2023/12/02 09:15:39;;;;;;;15.87;10.87;;;;;;;-0.80;100.00;96196.66;6229180;28;20276;-49
2023/12/02 09:18:41;;;;;;;13.37;10.00;;;;;;;-0.82;100.00;96167.31;6232528;28;20704;-48
2023/12/02 09:21:44;;;;;;;13.67;10.10;;;;;;;-0.77;100.00;96176.34;6234541;28;20310;-51
2023/12/02 09:24:46;;;;;;;16.50;10.43;;;;;;;-0.81;100.00;96187.22;6235649;28;20193;-47
2023/12/02 09:28:11;;;;;;;15.43;10.43;;;;;;;-0.86;100.00;96205.34;6228949;28;20199;-48
2023/12/02 09:31:13;;;;;;;16.33;11.10;;;;;;;-0.87;100.00;96208.97;6234605;28;20652;-47
2023/12/02 09:34:42;;;;;;;14.57;10.93;;;;;;;-0.85;100.00;96187.84;6223963;28;20193;-46
2023/12/02 09:37:45;;;;;;;17.20;12.03;;;;;;;-0.89;100.00;96171.75;6230297;28;20283;-47
2023/12/02 09:40:53;;;;;;;19.13;12.80;;;;;;;-0.91;100.00;96167.75;6222889;28;20657;-48
2023/12/02 09:43:58;;;;;;;16.10;10.93;;;;;;;-0.95;100.00;96177.81;6239848;28;20197;-48
2023/12/02 09:47:10;;;;;;;17.43;12.07;;;;;;;-0.97;100.00;96186.88;6239614;28;20197;-47
2023/12/02 09:50:20;;;;;;;16.70;11.83;;;;;;;-0.98;100.00;96191.31;6228823;28;20185;-48
2023/12/02 09:53:48;;;;;;;16.87;11.30;;;;;;;-1.00;100.00;96198.53;6231329;28;20287;-47
2023/12/02 09:56:56;;;;;;;18.90;11.03;;;;;;;-1.07;100.00;96184.69;6233471;28;20193;-48
2023/12/02 10:00:09;;;;;;;15.97;11.47;;;;;;;-1.08;100.00;96131.63;6229920;28;20213;-48
2023/12/02 10:03:34;;;;;;;17.57;12.13;;;;;;;-1.16;100.00;96154.56;6230722;28;20367;-50
2023/12/02 10:07:03;;;;;;;16.67;12.20;;;;;;;-1.07;100.00;96171.63;6232449;28;20212;-47
2023/12/02 10:10:13;;;;;;;18.77;11.83;;;;;;;-1.24;100.00;96129.44;6235384;28;20200;-47
2023/12/02 10:13:23;;;;;;;17.83;12.17;;;;;;;-1.05;100.00;96157.34;6234793;28;20189;-49
2023/12/02 10:16:30;;;;;;;18.27;12.63;;;;;;;-1.05;100.00;96153.91;6233555;28;20228;-47
2023/12/02 10:19:41;;;;;;;21.27;13.10;;;;;;;-1.08;100.00;96151.75;6232857;28;20577;-48
2023/12/02 10:22:53;;;;;;;20.07;13.10;;;;;;;-0.98;100.00;96140.84;6236155;28;20683;-47
2023/12/02 10:26:02;;;;;;;18.13;11.80;;;;;;;-1.20;100.00;96120.19;6231929;28;20200;-49
2023/12/02 10:29:33;;;;;;;16.27;12.40;;;;;;;-1.00;100.00;96135.00;6231081;28;20336;-48
2023/12/02 10:32:50;;;;;;;17.60;12.33;;;;;;;-1.05;100.00;96156.53;6224076;28;20900;-50
2023/12/02 10:35:57;;;;;;;16.30;11.77;;;;;;;-1.06;100.00;96152.31;6226358;28;20208;-49
2023/12/02 10:39:11;;;;;;;17.27;11.87;;;;;;;-1.05;100.00;96154.72;6227308;28;20211;-47
2023/12/02 10:42:27;;;;;;;18.07;12.27;;;;;;;-1.05;100.00;96143.47;6228420;28;20205;-49
2023/12/02 10:45:30;;;;;;;19.57;12.37;;;;;;;-1.05;100.00;96136.44;6230678;28;20196;-51
2023/12/02 10:48:34;;;;;;;17.77;12.17;;;;;;;-1.08;100.00;96149.94;6231453;28;20199;-49
2023/12/02 10:51:42;;;;;;;17.60;11.90;;;;;;;-1.11;100.00;96152.13;6231144;28;20200;-48
2023/12/02 10:54:50;;;;;;;17.03;12.00;;;;;;;-1.12;100.00;96142.69;6231061;28;20205;-47
2023/12/02 10:57:55;;;;;;;16.83;10.90;;;;;;;-1.13;100.00;96130.66;6230078;28;20191;-48
2023/12/02 11:01:07;;;;;;;15.73;11.30;;;;;;;-1.11;100.00;96146.91;6230869;28;20273;-47
2023/12/02 11:04:17;;;;;;;16.73;10.53;;;;;;;-1.04;100.00;96139.84;6229723;28;21044;-49
2023/12/02 11:07:23;;;;;;;16.47;10.97;;;;;;;-1.12;100.00;96134.88;6231808;28;20696;-48
2023/12/02 11:10:30;;;;;;;13.97;10.00;;;;;;;-1.15;100.00;96149.13;6227378;28;20193;-49
2023/12/02 11:13:34;;;;;;;16.40;10.10;;;;;;;-1.12;100.00;96150.53;6233302;28;20217;-48
2023/12/02 11:16:44;;;;;;;15.73;10.63;;;;;;;-1.21;100.00;96157.78;6224134;28;20201;-48
2023/12/02 11:19:54;;;;;;;15.10;10.50;;;;;;;-1.22;100.00;96158.00;6230442;28;20204;-47
2023/12/02 11:23:39;;;;;;;14.50;10.03;;;;;;;-1.24;100.00;96183.50;6235951;28;20541;-49
2023/12/02 11:26:51;;;;;;;15.97;10.53;;;;;;;-1.28;100.00;96183.13;6229725;28;20227;-51
2023/12/02 11:30:35;;;;;;;15.60;10.23;;;;;;;-1.28;100.00;96169.25;6229830;28;20675;-50
2023/12/02 11:34:02;;;;;;;16.67;10.47;;;;;;;-1.25;100.00;96174.88;6227889;28;20240;-50
2023/12/02 11:37:27;;;;;;;13.37;9.30;;;;;;;-1.28;100.00;96190.97;6225214;28;20332;-52
2023/12/02 11:40:38;;;;;;;14.10;9.57;;;;;;;-1.30;100.00;96213.88;6231261;28;20217;-47
2023/12/02 11:43:58;;;;;;;12.83;8.63;;;;;;;-1.33;100.00;96222.94;6222147;28;20196;-50
2023/12/02 11:47:20;;;;;;;11.53;7.87;;;;;;;-1.36;100.00;96231.16;6221728;28;20193;-50
2023/12/02 11:50:39;;;;;;;11.07;7.73;;;;;;;-1.33;100.00;96209.03;6233934;28;20202;-49
2023/12/02 11:54:03;;;;;;;9.87;7.33;;;;;;;-1.39;100.00;96195.00;6231660;28;20729;-47
2023/12/02 11:57:16;;;;;;;12.10;7.23;;;;;;;-1.40;100.00;96196.00;6228077;28;20208;-47
2023/12/02 12:00:35;;;;;;;12.23;7.67;;;;;;;-1.44;100.00;96241.81;6225188;28;20848;-47
2023/12/02 12:04:03;;;;;;;10.23;7.33;;;;;;;-1.45;100.00;96297.66;6230347;28;20199;-50
2023/12/02 12:07:26;;;;;;;11.67;7.83;;;;;;;-1.42;100.00;96275.56;6228282;28;20595;-49
2023/12/02 12:10:36;;;;;;;11.50;7.90;;;;;;;-1.46;100.00;96298.66;6229538;28;20222;-47
2023/12/02 12:13:39;;;;;;;9.57;7.47;;;;;;;-1.27;100.00;96294.47;6260815;28;20780;-47
2023/12/02 12:16:41;;;;;;;9.70;7.23;;;;;;;-1.37;100.00;96289.63;6247947;28;20205;-49
2023/12/02 12:19:48;;;;;;;8.57;6.47;;;;;;;-1.43;100.00;96298.28;6235684;28;20215;-49
2023/12/02 12:22:50;;;;;;;9.10;6.63;;;;;;;-1.44;100.00;96301.88;6220750;28;20246;-49
2023/12/02 12:25:52;;;;;;;11.27;7.07;;;;;;;-1.46;100.00;96288.22;6221114;28;20208;-46
2023/12/02 12:28:55;;;;;;;11.70;7.30;;;;;;;-1.46;100.00;96292.66;6223102;28;20197;-46
2023/12/02 12:31:59;;;;;;;7.53;5.97;;;;;;;-1.62;100.00;96283.41;6221761;28;20240;-48
2023/12/02 12:35:21;;;;;;;6.47;5.57;;;;;;;-1.50;100.00;96301.88;6224239;28;20629;-46
2023/12/02 12:38:29;;;;;;;8.47;6.10;;;;;;;-1.48;100.00;96315.53;6257404;28;20196;-48
2023/12/02 12:41:31;;;;;;;8.60;6.27;;;;;;;-1.41;100.00;96318.97;6241567;28;20208;-46
2023/12/02 12:44:33;;;;;;;8.60;5.83;;;;;;;-1.44;100.00;96311.53;6224267;28;20189;-46
2023/12/02 12:47:35;;;;;;;7.20;5.50;;;;;;;-1.63;100.00;96285.19;6227130;28;20223;-47
2023/12/02 12:50:38;;;;;;;7.93;5.33;;;;;;;-1.46;100.00;96266.53;6227918;28;20228;-46
2023/12/02 12:53:53;;;;;;;5.77;4.50;;;;;;;-1.43;100.00;96261.72;6226004;28;20205;-46
2023/12/02 12:56:57;;;;;;;8.10;5.20;;;;;;;-1.39;100.00;96244.63;6232142;28;20235;-47
2023/12/02 13:00:06;;;;;;;6.60;5.10;;;;;;;-1.40;100.00;96237.78;6229295;28;20558;-46
2023/12/02 13:03:36;;;;;;;8.67;5.23;;;;;;;-1.33;100.00;96259.50;6233212;28;20276;-47
2023/12/02 13:06:47;;;;;;;7.87;5.23;;;;;;;-1.39;100.00;96257.66;6235981;28;20637;-44
2023/12/02 13:09:52;;;;;;;8.17;5.10;;;;;;;-1.31;100.00;96283.59;6222776;28;20193;-45
2023/12/02 13:12:57;;;;;;;6.43;4.30;;;;;;;-1.34;100.00;96343.28;6227461;28;20279;-46
2023/12/02 13:16:03;;;;;;;5.20;4.33;;;;;;;-1.25;100.00;96333.44;6225556;28;20662;-48
2023/12/02 13:19:08;;;;;;;5.70;4.20;;;;;;;-1.31;100.00;96312.34;6233092;28;20209;-46
2023/12/02 13:22:13;;;;;;;6.30;4.70;;;;;;;-1.37;100.00;96287.03;6232161;28;20225;-47
2023/12/02 13:25:19;;;;;;;5.27;4.30;;;;;;;-1.17;100.00;96297.47;6234971;28;20227;-47
2023/12/02 13:28:36;;;;;;;5.27;4.00;;;;;;;-1.24;100.00;96314.13;6226142;28;20197;-45
2023/12/02 13:31:39;;;;;;;6.10;3.70;;;;;;;-1.32;100.00;96321.19;6231051;28;20243;-45
2023/12/02 13:35:04;;;;;;;6.93;4.60;;;;;;;-1.33;100.00;96348.31;6227202;28;20394;-45
2023/12/02 13:38:32;;;;;;;6.30;4.17;;;;;;;-1.09;100.00;96340.88;6228481;28;20196;-47
2023/12/02 13:41:48;;;;;;;5.90;4.10;;;;;;;-1.14;100.00;96343.28;6226427;28;20243;-48
2023/12/02 13:44:55;;;;;;;5.80;4.33;;;;;;;-1.23;100.00;96352.31;6222873;28;20783;-46
2023/12/02 13:48:36;;;;;;;6.53;4.20;;;;;;;-1.03;100.00;96350.53;6229387;28;20196;-45
2023/12/02 13:51:49;;;;;;;5.03;4.00;;;;;;;-1.13;100.00;96337.06;6242852;28;20201;-49
2023/12/02 13:55:43;;;;;;;6.40;4.67;;;;;;;-1.12;100.00;96323.00;6230344;28;20204;-45
2023/12/02 13:59:06;;;;;;;5.27;4.20;;;;;;;-1.16;100.00;96321.78;6240487;28;20196;-46
2023/12/02 14:02:31;;;;;;;6.70;4.63;;;;;;;-1.16;100.00;96329.63;6231436;28;20204;-45
2023/12/02 14:05:48;;;;;;;7.03;4.63;;;;;;;-1.09;100.00;96326.00;6231652;28;20208;-44
2023/12/02 14:08:54;;;;;;;6.90;5.00;;;;;;;-1.04;100.00;96320.97;6231562;28;20271;-44
2023/12/02 14:12:06;;;;;;;6.53;4.70;;;;;;;-1.10;100.00;96319.16;6233856;28;20208;-44